sensor_id;sensor_type;location;lat;lon;timestamp;P1;durP1;ratioP1;P2;durP2;ratioP2
67065;SDS011;53978;43.846;25.952;2022-10-31T00:01:35;8.02;;;4.90;;
67065;SDS011;53978;43.846;25.952;2022-10-31T00:03:58;10.02;;;4.63;;
67065;SDS011;53978;43.846;25.952;2022-10-31T00:06:24;7.38;;;4.57;;
67065;SDS011;53978;43.846;25.952;2022-10-31T00:08:54;6.68;;;4.13;;
67065;SDS011;53978;43.846;25.952;2022-10-31T00:11:21;5.90;;;4.28;;
67065;SDS011;53978;43.846;25.952;2022-10-31T00:13:46;6.47;;;4.00;;
67065;SDS011;53978;43.846;25.952;2022-10-31T00:16:15;7.03;;;4.35;;
67065;SDS011;53978;43.846;25.952;2022-10-31T00:18:41;7.18;;;4.30;;
67065;SDS011;53978;43.846;25.952;2022-10-31T00:21:07;8.93;;;4.63;;
67065;SDS011;53978;43.846;25.952;2022-10-31T00:23:32;11.80;;;4.60;;
67065;SDS011;53978;43.846;25.952;2022-10-31T00:26:04;7.28;;;4.40;;
67065;SDS011;53978;43.846;25.952;2022-10-31T00:28:32;11.10;;;4.20;;
67065;SDS011;53978;43.846;25.952;2022-10-31T00:31:05;7.22;;;4.20;;
67065;SDS011;53978;43.846;25.952;2022-10-31T00:33:33;7.55;;;4.50;;
67065;SDS011;53978;43.846;25.952;2022-10-31T00:36:01;5.55;;;3.88;;
67065;SDS011;53978;43.846;25.952;2022-10-31T00:38:27;7.40;;;3.88;;
67065;SDS011;53978;43.846;25.952;2022-10-31T00:40:53;12.45;;;4.22;;
67065;SDS011;53978;43.846;25.952;2022-10-31T00:43:18;7.00;;;4.15;;
67065;SDS011;53978;43.846;25.952;2022-10-31T00:45:44;8.93;;;4.43;;
67065;SDS011;53978;43.846;25.952;2022-10-31T00:48:09;9.68;;;4.18;;
67065;SDS011;53978;43.846;25.952;2022-10-31T00:50:36;7.72;;;4.47;;
67065;SDS011;53978;43.846;25.952;2022-10-31T00:53:05;6.20;;;4.43;;
67065;SDS011;53978;43.846;25.952;2022-10-31T00:55:50;6.78;;;4.03;;
67065;SDS011;53978;43.846;25.952;2022-10-31T00:58:18;6.18;;;4.40;;
67065;SDS011;53978;43.846;25.952;2022-10-31T01:00:48;11.05;;;4.65;;
67065;SDS011;53978;43.846;25.952;2022-10-31T01:03:25;8.30;;;4.75;;
67065;SDS011;53978;43.846;25.952;2022-10-31T01:06:08;7.30;;;4.40;;
67065;SDS011;53978;43.846;25.952;2022-10-31T01:08:50;8.68;;;4.38;;
67065;SDS011;53978;43.846;25.952;2022-10-31T01:11:19;5.97;;;4.20;;
67065;SDS011;53978;43.846;25.952;2022-10-31T01:13:55;6.88;;;4.35;;
67065;SDS011;53978;43.846;25.952;2022-10-31T01:16:25;7.75;;;4.22;;
67065;SDS011;53978;43.846;25.952;2022-10-31T01:18:56;5.82;;;3.97;;
67065;SDS011;53978;43.846;25.952;2022-10-31T01:21:24;6.50;;;3.83;;
67065;SDS011;53978;43.846;25.952;2022-10-31T01:23:54;7.75;;;3.92;;
67065;SDS011;53978;43.846;25.952;2022-10-31T01:26:26;6.55;;;3.92;;
67065;SDS011;53978;43.846;25.952;2022-10-31T01:29:05;7.57;;;4.20;;
67065;SDS011;53978;43.846;25.952;2022-10-31T01:31:33;7.55;;;4.22;;
67065;SDS011;53978;43.846;25.952;2022-10-31T01:33:59;6.90;;;3.67;;
67065;SDS011;53978;43.846;25.952;2022-10-31T01:36:26;7.78;;;3.83;;
67065;SDS011;53978;43.846;25.952;2022-10-31T01:38:54;6.75;;;4.15;;
67065;SDS011;53978;43.846;25.952;2022-10-31T01:41:23;7.88;;;4.20;;
67065;SDS011;53978;43.846;25.952;2022-10-31T01:46:27;9.05;;;4.60;;
67065;SDS011;53978;43.846;25.952;2022-10-31T01:48:57;5.88;;;4.30;;
67065;SDS011;53978;43.846;25.952;2022-10-31T01:51:26;8.90;;;4.18;;
67065;SDS011;53978;43.846;25.952;2022-10-31T01:53:55;5.65;;;3.97;;
67065;SDS011;53978;43.846;25.952;2022-10-31T01:56:22;7.43;;;4.28;;
67065;SDS011;53978;43.846;25.952;2022-10-31T01:58:48;7.00;;;4.72;;
67065;SDS011;53978;43.846;25.952;2022-10-31T02:01:14;5.47;;;3.67;;
67065;SDS011;53978;43.846;25.952;2022-10-31T02:03:40;7.07;;;4.47;;
67065;SDS011;53978;43.846;25.952;2022-10-31T02:06:06;5.93;;;4.30;;
67065;SDS011;53978;43.846;25.952;2022-10-31T02:08:36;4.35;;;3.80;;
67065;SDS011;53978;43.846;25.952;2022-10-31T02:11:02;5.82;;;4.30;;
67065;SDS011;53978;43.846;25.952;2022-10-31T02:13:28;9.48;;;5.15;;
67065;SDS011;53978;43.846;25.952;2022-10-31T02:15:55;19.73;;;5.00;;
67065;SDS011;53978;43.846;25.952;2022-10-31T02:18:22;10.15;;;5.53;;
67065;SDS011;53978;43.846;25.952;2022-10-31T02:40:27;8.52;;;5.03;;
67065;SDS011;53978;43.846;25.952;2022-10-31T02:43:12;12.75;;;5.03;;
67065;SDS011;53978;43.846;25.952;2022-10-31T02:45:54;7.22;;;4.97;;
67065;SDS011;53978;43.846;25.952;2022-10-31T02:48:26;11.65;;;5.05;;
67065;SDS011;53978;43.846;25.952;2022-10-31T02:50:55;9.38;;;4.78;;
67065;SDS011;53978;43.846;25.952;2022-10-31T02:53:23;10.68;;;4.85;;
67065;SDS011;53978;43.846;25.952;2022-10-31T02:55:50;8.98;;;5.15;;
67065;SDS011;53978;43.846;25.952;2022-10-31T02:58:21;12.68;;;5.13;;
67065;SDS011;53978;43.846;25.952;2022-10-31T03:09:05;8.57;;;5.32;;
67065;SDS011;53978;43.846;25.952;2022-10-31T03:11:41;9.93;;;5.20;;
67065;SDS011;53978;43.846;25.952;2022-10-31T03:14:12;9.75;;;4.97;;
67065;SDS011;53978;43.846;25.952;2022-10-31T03:16:48;8.93;;;5.32;;
67065;SDS011;53978;43.846;25.952;2022-10-31T03:19:17;7.85;;;4.85;;
67065;SDS011;53978;43.846;25.952;2022-10-31T03:24:19;9.25;;;5.97;;
67065;SDS011;53978;43.846;25.952;2022-10-31T03:26:51;8.05;;;5.10;;
67065;SDS011;53978;43.846;25.952;2022-10-31T03:29:19;6.75;;;4.80;;
67065;SDS011;53978;43.846;25.952;2022-10-31T03:31:49;10.38;;;5.53;;
67065;SDS011;53978;43.846;25.952;2022-10-31T03:34:17;8.73;;;4.85;;
67065;SDS011;53978;43.846;25.952;2022-10-31T03:36:45;11.27;;;5.10;;
67065;SDS011;53978;43.846;25.952;2022-10-31T03:39:12;9.07;;;5.38;;
67065;SDS011;53978;43.846;25.952;2022-10-31T03:41:45;10.18;;;4.90;;
67065;SDS011;53978;43.846;25.952;2022-10-31T03:44:27;7.78;;;4.30;;
67065;SDS011;53978;43.846;25.952;2022-10-31T03:46:54;11.88;;;5.25;;
67065;SDS011;53978;43.846;25.952;2022-10-31T03:49:20;7.75;;;4.80;;
67065;SDS011;53978;43.846;25.952;2022-10-31T03:57:21;10.68;;;5.53;;
67065;SDS011;53978;43.846;25.952;2022-10-31T03:59:57;10.02;;;4.93;;
67065;SDS011;53978;43.846;25.952;2022-10-31T04:02:32;7.25;;;4.95;;
67065;SDS011;53978;43.846;25.952;2022-10-31T04:04:59;8.18;;;4.95;;
67065;SDS011;53978;43.846;25.952;2022-10-31T04:07:26;9.10;;;5.40;;
67065;SDS011;53978;43.846;25.952;2022-10-31T04:09:55;7.15;;;5.07;;
67065;SDS011;53978;43.846;25.952;2022-10-31T04:12:21;9.93;;;5.07;;
67065;SDS011;53978;43.846;25.952;2022-10-31T04:14:49;9.45;;;5.18;;
67065;SDS011;53978;43.846;25.952;2022-10-31T04:17:16;10.13;;;5.95;;
67065;SDS011;53978;43.846;25.952;2022-10-31T04:19:43;13.13;;;6.10;;
67065;SDS011;53978;43.846;25.952;2022-10-31T04:22:08;11.35;;;5.63;;
67065;SDS011;53978;43.846;25.952;2022-10-31T04:24:33;7.32;;;5.53;;
67065;SDS011;53978;43.846;25.952;2022-10-31T04:26:59;10.63;;;6.25;;
67065;SDS011;53978;43.846;25.952;2022-10-31T04:29:24;9.68;;;6.00;;
67065;SDS011;53978;43.846;25.952;2022-10-31T04:31:50;8.77;;;5.45;;
67065;SDS011;53978;43.846;25.952;2022-10-31T04:34:16;12.15;;;6.45;;
67065;SDS011;53978;43.846;25.952;2022-10-31T04:36:41;13.65;;;6.78;;
67065;SDS011;53978;43.846;25.952;2022-10-31T04:39:07;11.70;;;6.35;;
67065;SDS011;53978;43.846;25.952;2022-10-31T04:41:32;12.60;;;6.85;;
67065;SDS011;53978;43.846;25.952;2022-10-31T04:43:58;11.77;;;6.28;;
67065;SDS011;53978;43.846;25.952;2022-10-31T04:46:23;11.85;;;6.32;;
67065;SDS011;53978;43.846;25.952;2022-10-31T04:48:55;11.75;;;6.38;;
67065;SDS011;53978;43.846;25.952;2022-10-31T04:51:35;11.90;;;6.25;;
67065;SDS011;53978;43.846;25.952;2022-10-31T04:54:07;10.65;;;7.07;;
67065;SDS011;53978;43.846;25.952;2022-10-31T04:56:36;17.95;;;7.60;;
67065;SDS011;53978;43.846;25.952;2022-10-31T04:59:10;12.82;;;6.47;;
67065;SDS011;53978;43.846;25.952;2022-10-31T05:01:35;13.10;;;6.43;;
67065;SDS011;53978;43.846;25.952;2022-10-31T05:04:01;10.68;;;6.45;;
67065;SDS011;53978;43.846;25.952;2022-10-31T05:06:26;11.18;;;6.18;;
67065;SDS011;53978;43.846;25.952;2022-10-31T05:08:51;12.13;;;6.32;;
67065;SDS011;53978;43.846;25.952;2022-10-31T05:11:17;13.10;;;6.88;;
67065;SDS011;53978;43.846;25.952;2022-10-31T05:13:43;12.93;;;6.88;;
67065;SDS011;53978;43.846;25.952;2022-10-31T05:16:08;12.18;;;6.53;;
67065;SDS011;53978;43.846;25.952;2022-10-31T05:18:34;12.15;;;6.28;;
67065;SDS011;53978;43.846;25.952;2022-10-31T05:20:59;15.98;;;6.88;;
67065;SDS011;53978;43.846;25.952;2022-10-31T05:23:24;10.98;;;6.53;;
67065;SDS011;53978;43.846;25.952;2022-10-31T05:25:50;12.77;;;6.75;;
67065;SDS011;53978;43.846;25.952;2022-10-31T05:28:15;13.10;;;7.07;;
67065;SDS011;53978;43.846;25.952;2022-10-31T05:30:41;15.30;;;7.13;;
67065;SDS011;53978;43.846;25.952;2022-10-31T05:33:06;16.92;;;7.07;;
67065;SDS011;53978;43.846;25.952;2022-10-31T05:35:32;11.50;;;7.45;;
67065;SDS011;53978;43.846;25.952;2022-10-31T05:37:58;14.75;;;7.43;;
67065;SDS011;53978;43.846;25.952;2022-10-31T05:40:24;11.57;;;6.78;;
67065;SDS011;53978;43.846;25.952;2022-10-31T05:42:51;12.38;;;7.07;;
67065;SDS011;53978;43.846;25.952;2022-10-31T05:45:17;10.43;;;6.78;;
67065;SDS011;53978;43.846;25.952;2022-10-31T05:47:53;13.70;;;8.02;;
67065;SDS011;53978;43.846;25.952;2022-10-31T05:50:21;13.65;;;7.47;;
67065;SDS011;53978;43.846;25.952;2022-10-31T05:52:47;16.45;;;7.97;;
67065;SDS011;53978;43.846;25.952;2022-10-31T05:55:12;15.00;;;8.18;;
67065;SDS011;53978;43.846;25.952;2022-10-31T05:57:38;12.93;;;7.50;;
67065;SDS011;53978;43.846;25.952;2022-10-31T06:00:04;19.08;;;8.07;;
67065;SDS011;53978;43.846;25.952;2022-10-31T06:02:30;13.55;;;7.68;;
67065;SDS011;53978;43.846;25.952;2022-10-31T06:04:59;16.10;;;8.55;;
67065;SDS011;53978;43.846;25.952;2022-10-31T06:07:25;18.40;;;8.18;;
67065;SDS011;53978;43.846;25.952;2022-10-31T06:09:50;13.02;;;7.63;;
67065;SDS011;53978;43.846;25.952;2022-10-31T06:12:16;15.93;;;7.85;;
67065;SDS011;53978;43.846;25.952;2022-10-31T06:14:41;15.00;;;7.68;;
67065;SDS011;53978;43.846;25.952;2022-10-31T06:17:07;15.05;;;7.57;;
67065;SDS011;53978;43.846;25.952;2022-10-31T06:19:32;12.27;;;7.60;;
67065;SDS011;53978;43.846;25.952;2022-10-31T06:21:58;12.88;;;7.28;;
67065;SDS011;53978;43.846;25.952;2022-10-31T06:24:23;11.90;;;7.65;;
67065;SDS011;53978;43.846;25.952;2022-10-31T06:26:48;16.58;;;8.05;;
67065;SDS011;53978;43.846;25.952;2022-10-31T06:29:14;17.45;;;7.35;;
67065;SDS011;53978;43.846;25.952;2022-10-31T06:31:39;12.63;;;7.20;;
67065;SDS011;53978;43.846;25.952;2022-10-31T06:34:04;13.68;;;7.93;;
67065;SDS011;53978;43.846;25.952;2022-10-31T06:36:30;14.00;;;7.63;;
67065;SDS011;53978;43.846;25.952;2022-10-31T06:38:55;13.00;;;7.22;;
67065;SDS011;53978;43.846;25.952;2022-10-31T06:41:21;15.80;;;7.50;;
67065;SDS011;53978;43.846;25.952;2022-10-31T06:43:46;12.98;;;7.68;;
67065;SDS011;53978;43.846;25.952;2022-10-31T06:46:13;20.77;;;7.35;;
67065;SDS011;53978;43.846;25.952;2022-10-31T06:48:40;13.50;;;7.47;;
67065;SDS011;53978;43.846;25.952;2022-10-31T06:51:06;11.85;;;7.30;;
67065;SDS011;53978;43.846;25.952;2022-10-31T06:53:34;19.15;;;7.63;;
67065;SDS011;53978;43.846;25.952;2022-10-31T06:56:00;29.65;;;7.97;;
67065;SDS011;53978;43.846;25.952;2022-10-31T06:58:25;16.75;;;7.60;;
67065;SDS011;53978;43.846;25.952;2022-10-31T07:00:51;19.42;;;7.28;;
67065;SDS011;53978;43.846;25.952;2022-10-31T07:03:16;21.60;;;7.80;;
67065;SDS011;53978;43.846;25.952;2022-10-31T07:05:42;17.60;;;7.55;;
67065;SDS011;53978;43.846;25.952;2022-10-31T07:08:10;16.13;;;7.57;;
67065;SDS011;53978;43.846;25.952;2022-10-31T07:10:39;12.50;;;7.57;;
67065;SDS011;53978;43.846;25.952;2022-10-31T07:13:07;15.32;;;7.53;;
67065;SDS011;53978;43.846;25.952;2022-10-31T07:15:36;17.80;;;8.32;;
67065;SDS011;53978;43.846;25.952;2022-10-31T07:18:03;14.55;;;8.70;;
67065;SDS011;53978;43.846;25.952;2022-10-31T07:20:30;18.55;;;9.27;;
67065;SDS011;53978;43.846;25.952;2022-10-31T07:22:56;14.18;;;8.55;;
67065;SDS011;53978;43.846;25.952;2022-10-31T07:25:22;25.45;;;8.48;;
67065;SDS011;53978;43.846;25.952;2022-10-31T07:27:48;19.23;;;10.52;;
67065;SDS011;53978;43.846;25.952;2022-10-31T07:30:14;17.75;;;9.15;;
67065;SDS011;53978;43.846;25.952;2022-10-31T07:32:43;15.90;;;9.18;;
67065;SDS011;53978;43.846;25.952;2022-10-31T07:35:10;22.27;;;9.07;;
67065;SDS011;53978;43.846;25.952;2022-10-31T07:37:37;15.60;;;8.80;;
67065;SDS011;53978;43.846;25.952;2022-10-31T07:40:03;20.75;;;8.85;;
67065;SDS011;53978;43.846;25.952;2022-10-31T07:42:29;14.55;;;9.05;;
67065;SDS011;53978;43.846;25.952;2022-10-31T07:45:09;15.27;;;8.68;;
67065;SDS011;53978;43.846;25.952;2022-10-31T07:47:40;15.57;;;8.63;;
67065;SDS011;53978;43.846;25.952;2022-10-31T07:50:13;17.13;;;9.50;;
67065;SDS011;53978;43.846;25.952;2022-10-31T07:52:40;18.40;;;9.20;;
67065;SDS011;53978;43.846;25.952;2022-10-31T07:55:06;12.13;;;8.10;;
67065;SDS011;53978;43.846;25.952;2022-10-31T07:57:32;14.30;;;8.00;;
67065;SDS011;53978;43.846;25.952;2022-10-31T07:59:57;15.70;;;8.63;;
67065;SDS011;53978;43.846;25.952;2022-10-31T08:02:23;14.05;;;8.88;;
67065;SDS011;53978;43.846;25.952;2022-10-31T08:04:49;29.40;;;9.52;;
67065;SDS011;53978;43.846;25.952;2022-10-31T08:07:15;14.73;;;8.57;;
67065;SDS011;53978;43.846;25.952;2022-10-31T08:09:41;14.60;;;8.10;;
67065;SDS011;53978;43.846;25.952;2022-10-31T08:12:06;16.45;;;8.68;;
67065;SDS011;53978;43.846;25.952;2022-10-31T08:14:31;15.52;;;8.23;;
67065;SDS011;53978;43.846;25.952;2022-10-31T08:16:57;14.30;;;8.45;;
67065;SDS011;53978;43.846;25.952;2022-10-31T08:19:22;14.07;;;7.97;;
67065;SDS011;53978;43.846;25.952;2022-10-31T08:21:51;13.48;;;8.63;;
67065;SDS011;53978;43.846;25.952;2022-10-31T08:24:17;12.75;;;8.40;;
67065;SDS011;53978;43.846;25.952;2022-10-31T08:26:43;14.27;;;9.45;;
67065;SDS011;53978;43.846;25.952;2022-10-31T08:29:08;15.73;;;9.38;;
67065;SDS011;53978;43.846;25.952;2022-10-31T08:31:34;19.58;;;9.82;;
67065;SDS011;53978;43.846;25.952;2022-10-31T08:34:00;19.02;;;9.32;;
67065;SDS011;53978;43.846;25.952;2022-10-31T08:36:26;14.77;;;9.02;;
67065;SDS011;53978;43.846;25.952;2022-10-31T08:38:52;14.00;;;8.68;;
67065;SDS011;53978;43.846;25.952;2022-10-31T08:41:17;16.58;;;9.70;;
67065;SDS011;53978;43.846;25.952;2022-10-31T08:43:43;17.52;;;8.43;;
67065;SDS011;53978;43.846;25.952;2022-10-31T08:46:08;16.10;;;9.55;;
67065;SDS011;53978;43.846;25.952;2022-10-31T08:48:34;14.98;;;8.57;;
67065;SDS011;53978;43.846;25.952;2022-10-31T08:50:59;18.63;;;9.50;;
67065;SDS011;53978;43.846;25.952;2022-10-31T08:53:25;14.23;;;9.23;;
67065;SDS011;53978;43.846;25.952;2022-10-31T08:55:53;17.70;;;9.80;;
67065;SDS011;53978;43.846;25.952;2022-10-31T08:58:19;15.68;;;8.40;;
67065;SDS011;53978;43.846;25.952;2022-10-31T09:00:46;23.40;;;9.02;;
67065;SDS011;53978;43.846;25.952;2022-10-31T09:03:13;16.48;;;9.38;;
67065;SDS011;53978;43.846;25.952;2022-10-31T09:05:48;21.27;;;8.93;;
67065;SDS011;53978;43.846;25.952;2022-10-31T09:08:15;16.33;;;9.30;;
67065;SDS011;53978;43.846;25.952;2022-10-31T09:10:41;19.70;;;9.43;;
67065;SDS011;53978;43.846;25.952;2022-10-31T09:13:08;16.75;;;8.98;;
67065;SDS011;53978;43.846;25.952;2022-10-31T09:15:37;16.33;;;9.45;;
67065;SDS011;53978;43.846;25.952;2022-10-31T09:18:05;17.63;;;9.32;;
67065;SDS011;53978;43.846;25.952;2022-10-31T09:20:31;12.10;;;8.48;;
67065;SDS011;53978;43.846;25.952;2022-10-31T09:22:58;15.10;;;8.70;;
67065;SDS011;53978;43.846;25.952;2022-10-31T09:25:25;15.70;;;8.35;;
67065;SDS011;53978;43.846;25.952;2022-10-31T09:27:54;16.20;;;8.88;;
67065;SDS011;53978;43.846;25.952;2022-10-31T09:30:21;16.25;;;8.85;;
67065;SDS011;53978;43.846;25.952;2022-10-31T09:32:46;16.15;;;8.93;;
67065;SDS011;53978;43.846;25.952;2022-10-31T09:35:12;17.85;;;8.60;;
67065;SDS011;53978;43.846;25.952;2022-10-31T09:37:37;12.85;;;8.38;;
67065;SDS011;53978;43.846;25.952;2022-10-31T09:40:03;12.48;;;8.07;;
67065;SDS011;53978;43.846;25.952;2022-10-31T09:45:24;17.00;;;8.02;;
67065;SDS011;53978;43.846;25.952;2022-10-31T09:48:12;18.65;;;7.75;;
67065;SDS011;53978;43.846;25.952;2022-10-31T09:50:51;16.55;;;7.30;;
67065;SDS011;53978;43.846;25.952;2022-10-31T09:55:52;13.50;;;7.85;;
67065;SDS011;53978;43.846;25.952;2022-10-31T09:58:26;11.18;;;7.50;;
67065;SDS011;53978;43.846;25.952;2022-10-31T10:00:53;13.02;;;6.82;;
67065;SDS011;53978;43.846;25.952;2022-10-31T10:08:48;11.30;;;7.22;;
67065;SDS011;53978;43.846;25.952;2022-10-31T10:14:27;14.82;;;7.25;;
67065;SDS011;53978;43.846;25.952;2022-10-31T10:17:02;12.23;;;7.10;;
67065;SDS011;53978;43.846;25.952;2022-10-31T10:19:48;13.60;;;7.53;;
67065;SDS011;53978;43.846;25.952;2022-10-31T10:30:28;9.75;;;6.63;;
67065;SDS011;53978;43.846;25.952;2022-10-31T10:33:14;10.60;;;6.95;;
67065;SDS011;53978;43.846;25.952;2022-10-31T10:35:47;10.60;;;6.55;;
67065;SDS011;53978;43.846;25.952;2022-10-31T10:41:00;15.20;;;6.88;;
67065;SDS011;53978;43.846;25.952;2022-10-31T10:43:33;10.60;;;6.75;;
67065;SDS011;53978;43.846;25.952;2022-10-31T10:48:55;11.80;;;6.38;;
67065;SDS011;53978;43.846;25.952;2022-10-31T10:51:25;13.98;;;7.10;;
67065;SDS011;53978;43.846;25.952;2022-10-31T10:57:06;13.57;;;7.07;;
67065;SDS011;53978;43.846;25.952;2022-10-31T10:59:44;13.20;;;7.05;;
67065;SDS011;53978;43.846;25.952;2022-10-31T11:02:18;15.25;;;7.45;;
67065;SDS011;53978;43.846;25.952;2022-10-31T11:04:52;11.88;;;6.53;;
67065;SDS011;53978;43.846;25.952;2022-10-31T11:07:19;8.93;;;6.43;;
67065;SDS011;53978;43.846;25.952;2022-10-31T11:09:45;10.45;;;6.03;;
67065;SDS011;53978;43.846;25.952;2022-10-31T11:12:28;12.13;;;6.30;;
67065;SDS011;53978;43.846;25.952;2022-10-31T11:14:56;10.63;;;6.43;;
67065;SDS011;53978;43.846;25.952;2022-10-31T11:17:33;14.07;;;6.80;;
67065;SDS011;53978;43.846;25.952;2022-10-31T11:20:00;10.88;;;6.13;;
67065;SDS011;53978;43.846;25.952;2022-10-31T11:22:39;11.63;;;6.03;;
67065;SDS011;53978;43.846;25.952;2022-10-31T11:25:38;18.15;;;6.53;;
67065;SDS011;53978;43.846;25.952;2022-10-31T11:28:08;14.95;;;7.03;;
67065;SDS011;53978;43.846;25.952;2022-10-31T11:30:47;12.77;;;6.85;;
67065;SDS011;53978;43.846;25.952;2022-10-31T11:33:16;9.15;;;6.28;;
67065;SDS011;53978;43.846;25.952;2022-10-31T11:35:44;12.15;;;5.97;;
67065;SDS011;53978;43.846;25.952;2022-10-31T11:38:12;9.43;;;5.43;;
67065;SDS011;53978;43.846;25.952;2022-10-31T11:40:40;12.07;;;5.90;;
67065;SDS011;53978;43.846;25.952;2022-10-31T11:43:17;11.25;;;5.50;;
67065;SDS011;53978;43.846;25.952;2022-10-31T11:45:43;16.75;;;5.57;;
67065;SDS011;53978;43.846;25.952;2022-10-31T11:48:19;8.38;;;5.40;;
67065;SDS011;53978;43.846;25.952;2022-10-31T11:50:50;12.23;;;5.90;;
67065;SDS011;53978;43.846;25.952;2022-10-31T11:53:18;8.38;;;5.35;;
67065;SDS011;53978;43.846;25.952;2022-10-31T11:55:46;14.88;;;6.30;;
67065;SDS011;53978;43.846;25.952;2022-10-31T11:58:23;9.60;;;5.85;;
67065;SDS011;53978;43.846;25.952;2022-10-31T12:00:51;7.65;;;4.95;;
67065;SDS011;53978;43.846;25.952;2022-10-31T12:05:47;5.68;;;4.30;;
67065;SDS011;53978;43.846;25.952;2022-10-31T12:08:23;8.43;;;4.30;;
67065;SDS011;53978;43.846;25.952;2022-10-31T12:16:02;9.68;;;4.68;;
67065;SDS011;53978;43.846;25.952;2022-10-31T12:21:19;8.38;;;4.93;;
67065;SDS011;53978;43.846;25.952;2022-10-31T12:42:43;8.38;;;4.35;;
67065;SDS011;53978;43.846;25.952;2022-10-31T12:47:52;8.52;;;4.50;;
67065;SDS011;53978;43.846;25.952;2022-10-31T12:59:04;7.47;;;3.97;;
67065;SDS011;53978;43.846;25.952;2022-10-31T13:01:56;6.10;;;3.97;;
67065;SDS011;53978;43.846;25.952;2022-10-31T13:04:30;9.88;;;4.40;;
67065;SDS011;53978;43.846;25.952;2022-10-31T13:07:03;5.88;;;4.00;;
67065;SDS011;53978;43.846;25.952;2022-10-31T13:12:28;6.15;;;4.10;;
67065;SDS011;53978;43.846;25.952;2022-10-31T13:14:56;8.68;;;4.38;;
67065;SDS011;53978;43.846;25.952;2022-10-31T13:20:13;6.30;;;4.13;;
67065;SDS011;53978;43.846;25.952;2022-10-31T13:22:48;7.70;;;4.13;;
67065;SDS011;53978;43.846;25.952;2022-10-31T13:25:15;9.80;;;3.85;;
67065;SDS011;53978;43.846;25.952;2022-10-31T13:30:30;14.00;;;4.85;;
67065;SDS011;53978;43.846;25.952;2022-10-31T13:33:02;7.88;;;4.20;;
67065;SDS011;53978;43.846;25.952;2022-10-31T13:35:40;10.65;;;4.45;;
67065;SDS011;53978;43.846;25.952;2022-10-31T13:38:22;9.38;;;4.68;;
67065;SDS011;53978;43.846;25.952;2022-10-31T13:41:03;14.02;;;4.55;;
67065;SDS011;53978;43.846;25.952;2022-10-31T13:44:24;6.60;;;4.43;;
67065;SDS011;53978;43.846;25.952;2022-10-31T13:46:44;13.93;;;4.80;;
67065;SDS011;53978;43.846;25.952;2022-10-31T13:49:35;7.32;;;4.55;;
67065;SDS011;53978;43.846;25.952;2022-10-31T13:54:34;7.78;;;4.20;;
67065;SDS011;53978;43.846;25.952;2022-10-31T13:57:02;8.13;;;4.72;;
67065;SDS011;53978;43.846;25.952;2022-10-31T13:59:32;7.18;;;4.28;;
67065;SDS011;53978;43.846;25.952;2022-10-31T14:02:02;11.68;;;4.72;;
67065;SDS011;53978;43.846;25.952;2022-10-31T14:04:48;10.43;;;4.68;;
67065;SDS011;53978;43.846;25.952;2022-10-31T14:07:18;11.13;;;4.57;;
67065;SDS011;53978;43.846;25.952;2022-10-31T14:09:56;6.50;;;4.43;;
67065;SDS011;53978;43.846;25.952;2022-10-31T14:12:40;8.60;;;5.03;;
67065;SDS011;53978;43.846;25.952;2022-10-31T14:15:14;14.73;;;4.78;;
67065;SDS011;53978;43.846;25.952;2022-10-31T14:22:51;15.45;;;4.70;;
67065;SDS011;53978;43.846;25.952;2022-10-31T14:27:51;13.18;;;5.32;;
67065;SDS011;53978;43.846;25.952;2022-10-31T14:30:21;10.98;;;4.38;;
67065;SDS011;53978;43.846;25.952;2022-10-31T14:32:50;6.30;;;4.80;;
67065;SDS011;53978;43.846;25.952;2022-10-31T14:35:17;7.10;;;4.82;;
67065;SDS011;53978;43.846;25.952;2022-10-31T14:40:17;11.23;;;4.72;;
67065;SDS011;53978;43.846;25.952;2022-10-31T14:51:19;15.02;;;6.45;;
67065;SDS011;53978;43.846;25.952;2022-10-31T14:56:18;19.60;;;9.48;;
67065;SDS011;53978;43.846;25.952;2022-10-31T14:58:48;20.17;;;8.90;;
67065;SDS011;53978;43.846;25.952;2022-10-31T15:04:12;23.45;;;8.63;;
67065;SDS011;53978;43.846;25.952;2022-10-31T15:06:49;19.80;;;7.82;;
67065;SDS011;53978;43.846;25.952;2022-10-31T15:09:21;17.00;;;7.40;;
67065;SDS011;53978;43.846;25.952;2022-10-31T15:11:57;17.90;;;7.55;;
67065;SDS011;53978;43.846;25.952;2022-10-31T15:14:29;17.95;;;7.55;;
67065;SDS011;53978;43.846;25.952;2022-10-31T15:16:59;16.40;;;6.93;;
67065;SDS011;53978;43.846;25.952;2022-10-31T15:19:27;15.93;;;7.18;;
67065;SDS011;53978;43.846;25.952;2022-10-31T15:21:54;19.73;;;7.05;;
67065;SDS011;53978;43.846;25.952;2022-10-31T15:24:22;16.25;;;6.40;;
67065;SDS011;53978;43.846;25.952;2022-10-31T15:26:50;12.98;;;6.88;;
67065;SDS011;53978;43.846;25.952;2022-10-31T15:29:18;16.08;;;6.85;;
67065;SDS011;53978;43.846;25.952;2022-10-31T15:31:57;20.42;;;7.40;;
67065;SDS011;53978;43.846;25.952;2022-10-31T15:37:09;17.75;;;7.78;;
67065;SDS011;53978;43.846;25.952;2022-10-31T15:39:37;15.82;;;8.20;;
67065;SDS011;53978;43.846;25.952;2022-10-31T15:42:02;26.02;;;7.82;;
67065;SDS011;53978;43.846;25.952;2022-10-31T15:44:29;18.83;;;8.18;;
67065;SDS011;53978;43.846;25.952;2022-10-31T15:47:05;12.68;;;7.30;;
67065;SDS011;53978;43.846;25.952;2022-10-31T15:54:57;16.48;;;7.72;;
67065;SDS011;53978;43.846;25.952;2022-10-31T15:57:25;16.40;;;7.90;;
67065;SDS011;53978;43.846;25.952;2022-10-31T15:59:51;23.67;;;8.60;;
67065;SDS011;53978;43.846;25.952;2022-10-31T16:02:24;16.27;;;7.82;;
67065;SDS011;53978;43.846;25.952;2022-10-31T16:04:55;18.85;;;7.93;;
67065;SDS011;53978;43.846;25.952;2022-10-31T16:07:22;22.63;;;8.00;;
67065;SDS011;53978;43.846;25.952;2022-10-31T16:09:53;19.55;;;7.97;;
67065;SDS011;53978;43.846;25.952;2022-10-31T16:12:22;15.43;;;8.00;;
67065;SDS011;53978;43.846;25.952;2022-10-31T16:14:53;30.20;;;8.45;;
67065;SDS011;53978;43.846;25.952;2022-10-31T16:17:20;18.15;;;8.60;;
67065;SDS011;53978;43.846;25.952;2022-10-31T16:19:48;24.08;;;8.95;;
67065;SDS011;53978;43.846;25.952;2022-10-31T16:22:20;14.82;;;8.32;;
67065;SDS011;53978;43.846;25.952;2022-10-31T16:24:53;25.65;;;8.88;;
67065;SDS011;53978;43.846;25.952;2022-10-31T16:27:24;21.92;;;8.98;;
67065;SDS011;53978;43.846;25.952;2022-10-31T16:29:53;19.75;;;8.60;;
67065;SDS011;53978;43.846;25.952;2022-10-31T16:32:25;13.52;;;8.82;;
67065;SDS011;53978;43.846;25.952;2022-10-31T16:34:59;18.95;;;8.70;;
67065;SDS011;53978;43.846;25.952;2022-10-31T16:37:28;18.63;;;8.80;;
67065;SDS011;53978;43.846;25.952;2022-10-31T16:39:53;17.85;;;9.05;;
67065;SDS011;53978;43.846;25.952;2022-10-31T16:42:21;19.27;;;9.10;;
67065;SDS011;53978;43.846;25.952;2022-10-31T16:44:46;19.30;;;9.30;;
67065;SDS011;53978;43.846;25.952;2022-10-31T16:47:13;26.95;;;9.85;;
67065;SDS011;53978;43.846;25.952;2022-10-31T16:49:40;25.67;;;10.30;;
67065;SDS011;53978;43.846;25.952;2022-10-31T16:52:06;22.50;;;9.73;;
67065;SDS011;53978;43.846;25.952;2022-10-31T16:54:32;23.77;;;9.65;;
67065;SDS011;53978;43.846;25.952;2022-10-31T16:56:58;25.38;;;9.50;;
67065;SDS011;53978;43.846;25.952;2022-10-31T16:59:24;20.45;;;10.23;;
67065;SDS011;53978;43.846;25.952;2022-10-31T17:01:50;28.15;;;10.57;;
67065;SDS011;53978;43.846;25.952;2022-10-31T17:04:15;21.00;;;10.55;;
67065;SDS011;53978;43.846;25.952;2022-10-31T17:06:41;25.90;;;13.00;;
67065;SDS011;53978;43.846;25.952;2022-10-31T17:09:09;29.85;;;13.35;;
67065;SDS011;53978;43.846;25.952;2022-10-31T17:11:35;32.60;;;12.57;;